Monroe, WI

6:59 AM CDT on March 31, 2015 (GMT -0500)
Monroe Municipal | | Change Station
CLOSE
Current Station
Airport
Location: Monroe,
Elevation: 1086 ft
Nearby Weather Stations
Active Advisory: Special Statement

Elev 1086 ft 42.62 °N, 89.59 °W | Updated 24 minutes ago

Scattered Clouds
Scattered Clouds
36 °F
Feels Like 29 °F
N
8
Wind Variable Wind from North

Today
High -- | Low -- °F
--% Chance of Precip.
Yesterday
High -- | Low -- °F
Precip. -- in
6:42 AM 7:23 PM
Waxing Gibbous, 86% visible
Pressure 29.85 in
Visibility 7.0 miles
Clouds Scattered Clouds 500 ft
Windchill 29 °F
Dew Point 34 °F
Humidity 93%
Rainfall 0.00 in
Snow Depth Not available.
UV 0 out of 12
Pollen 7.90 out of 12
Air Quality Not available.
Flu Activity Not available.
METAR KEFT 311135Z AUTO 35007KT 7SM SCT005 02/01 A2985 RMK AO2

More Conditions Fewer Conditions

Pressure 29.85 in
Visibility 7.0 miles
Clouds Scattered Clouds 500 ft
Windchill 29 °F
Dew Point 34 °F
Humidity 93%
Rainfall 0.00 in
Snow Depth Not available.
UV 0 out of 12
Pollen 7.90 out of 12
Air Quality Not available.
Flu Activity Not available.
METAR KEFT 311135Z AUTO 35007KT 7SM SCT005 02/01 A2985 RMK AO2

More Conditions Fewer Conditions

10-Day Weather Forecast

Almanac

Astronomy

Mar. 31, 2015 Rise Set
Actual Time
Civil Twilight
Nautical Twilight
Astronomical Twilight
Moon
Length of Visible Light
Length of Day
Tomorrow will be .
, % of the Moon is Illuminated

Today's Extremes

State Highs State Lows

Community

WunderPhotos

Upload Photos

1,809,745 photos uploaded!

WunderBlogs® & News

Nearby

Air Quality

  Air Quality AQ Index Pollutant
Not available.

Snow Depth

Station Depth Elevation

Earthquake Activity

City Distance Mag. Time & Date
Minimum magnitude displayed is 2.5.

Coastal Water Temperatures

Place Temperature

Stations

Nearby Weather Stations

Station Location Temp. Windchill Dew Point Humidity Wind Precip. Elev Updated Type
                   
Special Statement
Statement as of 6:41 AM CDT on March 31, 2015

... Patchy dense fog for the early morning commute...

Watch for patches of dense fog... mainly along and west of a
Westfield... Portage... Madison to Janesville line. Motorists can
expect pockets of dense fog reducing visibilities to 1/4 mile or
less. The fog is expected to lift by 10 am. Slow down and leave
plenty of distance between you and other vehicles.